createdAt,value
2023-05-23T00:00:15.486Z,633.40
2023-05-23T00:02:44.692Z,626.17
2023-05-23T00:05:15.516Z,591.15
2023-05-23T00:07:45.565Z,660.50
2023-05-23T00:10:14.426Z,616.83
2023-05-23T00:12:42.855Z,616.30
2023-05-23T00:15:12.257Z,668.83
2023-05-23T00:17:40.734Z,628.70
2023-05-23T00:20:11.037Z,658.80
2023-05-23T00:22:42.973Z,575.55
2023-05-23T00:25:12.955Z,653.63
2023-05-23T00:27:41.341Z,657.05
2023-05-23T00:30:10.500Z,657.65
2023-05-23T00:32:39.024Z,610.40
2023-05-23T00:35:08.523Z,670.75
2023-05-23T00:37:36.900Z,675.47
2023-05-23T00:40:05.796Z,661.60
2023-05-23T00:42:35.560Z,637.42
2023-05-23T00:45:03.954Z,672.97
2023-05-23T00:47:32.766Z,686.90
2023-05-23T00:50:01.403Z,650.22
2023-05-23T00:52:29.884Z,670.60
2023-05-23T00:54:58.517Z,668.20
2023-05-23T00:57:26.987Z,690.03
2023-05-23T00:59:56.869Z,666.08
2023-05-23T01:02:25.913Z,653.95
2023-05-23T01:04:54.583Z,682.58
2023-05-23T01:07:23.062Z,661.28
2023-05-23T01:09:51.912Z,715.85
2023-05-23T01:12:26.800Z,687.40
2023-05-23T01:15:03.560Z,693.55
2023-05-23T01:17:43.140Z,671.40
2023-05-23T01:20:13.987Z,660.42
2023-05-23T01:23:12.932Z,674.92
2023-05-23T01:25:59.439Z,676.28
2023-05-23T01:28:33.165Z,691.25
2023-05-23T01:31:03.674Z,678.92
2023-05-23T01:33:34.624Z,675.05
2023-05-23T01:36:04.533Z,683.47
2023-05-23T01:38:32.940Z,676.45
2023-05-23T01:41:01.326Z,671.40
2023-05-23T01:43:31.207Z,689.97
2023-05-23T01:46:01.111Z,695.00
2023-05-23T01:48:30.293Z,705.58
2023-05-23T01:50:58.860Z,683.38
2023-05-23T01:53:27.447Z,691.10
2023-05-23T01:55:56.103Z,683.15
2023-05-23T01:58:24.539Z,683.22
2023-05-23T02:00:54.375Z,686.80
2023-05-23T02:03:22.924Z,695.28
2023-05-23T02:05:51.465Z,678.28
2023-05-23T02:08:20.041Z,684.92
2023-05-23T02:10:48.458Z,684.40
2023-05-23T02:13:17.467Z,687.70
2023-05-23T02:15:45.904Z,677.50
2023-05-23T02:18:15.745Z,688.10
2023-05-23T02:20:44.118Z,692.92
2023-05-23T02:23:12.588Z,678.58
2023-05-23T02:25:41.324Z,691.88
2023-05-23T02:28:11.912Z,679.78
2023-05-23T02:30:40.360Z,687.20
2023-05-23T02:33:09.085Z,676.35
2023-05-23T02:35:39.097Z,679.35
2023-05-23T02:38:07.662Z,668.65
2023-05-23T02:40:36.125Z,681.72
2023-05-23T02:43:04.580Z,672.55
2023-05-23T02:45:32.999Z,680.45
2023-05-23T02:48:01.619Z,684.67
2023-05-23T02:50:30.127Z,681.88
2023-05-23T02:52:59.995Z,676.65
2023-05-23T02:55:28.872Z,677.00
2023-05-23T02:57:58.654Z,666.95
2023-05-23T03:00:27.424Z,680.67
2023-05-23T03:02:56.175Z,682.47
2023-05-23T03:05:24.560Z,673.42
2023-05-23T03:07:54.452Z,667.10
2023-05-23T03:10:24.166Z,678.75
2023-05-23T03:12:52.522Z,694.83
2023-05-23T03:15:21.125Z,684.30
2023-05-23T03:17:49.529Z,671.25
2023-05-23T03:20:17.927Z,689.42
2023-05-23T03:22:46.279Z,692.83
2023-05-23T03:25:16.300Z,702.20
2023-05-23T03:27:45.999Z,676.30
2023-05-23T03:30:14.914Z,684.42
2023-05-23T03:32:43.391Z,684.58
2023-05-23T03:35:12.228Z,666.80
2023-05-23T03:37:40.626Z,684.85
2023-05-23T03:40:10.120Z,712.35
2023-05-23T03:42:39.584Z,697.40
2023-05-23T03:45:09.784Z,663.58
2023-05-23T03:47:38.212Z,662.30
2023-05-23T03:50:07.496Z,700.60
2023-05-23T03:52:35.843Z,686.22
2023-05-23T03:55:04.243Z,672.55
2023-05-23T03:57:32.607Z,763.28
2023-05-23T04:00:00.930Z,713.45
2023-05-23T04:02:31.039Z,673.50
2023-05-23T04:05:00.659Z,710.20
2023-05-23T04:07:29.403Z,712.92
2023-05-23T04:09:57.800Z,663.53
2023-05-23T04:12:26.221Z,675.72
2023-05-23T04:14:54.657Z,694.33
2023-05-23T04:17:23.945Z,712.60
2023-05-23T04:19:53.900Z,701.17
2023-05-23T04:22:22.285Z,732.70
2023-05-23T04:24:50.678Z,717.85
2023-05-23T04:27:19.934Z,719.80
2023-05-23T04:29:48.396Z,658.05
2023-05-23T04:32:19.611Z,680.00
2023-05-23T04:34:48.088Z,666.97
2023-05-23T04:37:22.227Z,697.30
2023-05-23T04:39:51.066Z,683.88
2023-05-23T04:42:24.410Z,689.30
2023-05-23T04:44:53.558Z,696.25
2023-05-23T04:47:22.377Z,701.60
2023-05-23T04:49:50.767Z,755.10
2023-05-23T04:52:20.518Z,701.75
2023-05-23T04:54:49.673Z,670.42
2023-05-23T04:57:18.405Z,716.03
2023-05-23T04:59:46.982Z,689.38
2023-05-23T05:02:15.571Z,717.17
2023-05-23T05:04:44.002Z,719.35
2023-05-23T05:07:12.490Z,681.00
2023-05-23T05:09:42.482Z,723.35
2023-05-23T05:12:11.223Z,720.00
2023-05-23T05:14:39.656Z,712.22
2023-05-23T05:17:08.750Z,659.15
2023-05-23T05:19:37.307Z,711.47
2023-05-23T05:22:06.152Z,704.75
2023-05-23T05:24:34.551Z,657.80
2023-05-23T05:27:04.362Z,726.70
2023-05-23T05:29:33.840Z,722.10
2023-05-23T05:32:03.303Z,713.47
2023-05-23T05:34:31.728Z,754.70
2023-05-23T05:37:00.193Z,738.63
2023-05-23T05:39:28.921Z,696.65
2023-05-23T05:41:57.334Z,695.13
2023-05-23T05:44:27.238Z,756.85
2023-05-23T05:46:56.081Z,758.13
2023-05-23T05:49:24.503Z,739.33
2023-05-23T05:51:53.155Z,737.97
2023-05-23T05:54:21.575Z,726.88
2023-05-23T05:56:49.976Z,748.28
2023-05-23T05:59:18.432Z,722.78
2023-05-23T06:01:48.708Z,756.10
2023-05-23T06:04:17.252Z,755.90
2023-05-23T06:06:45.935Z,756.30
2023-05-23T06:09:14.360Z,750.38
2023-05-23T06:11:42.747Z,771.30
2023-05-23T06:14:11.189Z,743.05
2023-05-23T06:16:40.194Z,756.95
2023-05-23T06:19:10.388Z,789.55
2023-05-23T06:21:38.783Z,798.72
2023-05-23T06:24:07.918Z,751.28
2023-05-23T06:26:37.707Z,735.35
2023-05-23T06:29:06.432Z,745.38
2023-05-23T06:31:34.891Z,720.10
2023-05-23T06:34:03.389Z,747.40
2023-05-23T06:36:33.148Z,709.13
2023-05-23T06:39:01.502Z,708.35
2023-05-23T06:41:29.915Z,710.92
2023-05-23T06:43:58.280Z,750.58
2023-05-23T06:46:26.890Z,752.60
2023-05-23T06:49:06.589Z,738.72
2023-05-23T06:51:43.365Z,727.08
2023-05-23T06:54:11.961Z,736.20
2023-05-23T06:56:40.345Z,730.08
2023-05-23T06:59:08.732Z,735.85
2023-05-23T07:01:37.220Z,777.72
2023-05-23T07:04:05.785Z,788.63
2023-05-23T07:06:35.758Z,728.28
2023-05-23T07:09:05.577Z,756.15
2023-05-23T07:11:35.430Z,709.63
2023-05-23T07:14:03.938Z,727.10
2023-05-23T07:16:32.352Z,740.17
2023-05-23T07:19:02.073Z,737.72
2023-05-23T07:21:30.948Z,802.42
2023-05-23T07:23:59.346Z,724.15
2023-05-23T07:26:29.291Z,714.50
2023-05-23T07:28:57.730Z,732.75
2023-05-23T07:31:26.414Z,763.92
2023-05-23T07:33:56.680Z,748.92
2023-05-23T07:36:25.385Z,731.38
2023-05-23T07:38:54.179Z,745.13
2023-05-23T07:41:22.817Z,806.00
2023-05-23T07:43:52.716Z,730.53
2023-05-23T07:46:22.971Z,755.65
2023-05-23T07:48:51.467Z,732.00
2023-05-23T07:51:21.554Z,733.20
2023-05-23T07:53:50.071Z,726.00
2023-05-23T07:56:18.523Z,738.83
2023-05-23T07:58:47.061Z,725.17
2023-05-23T08:01:16.949Z,740.03
2023-05-23T08:03:46.029Z,732.65
2023-05-23T08:06:14.513Z,753.45
2023-05-23T08:08:43.722Z,710.85
2023-05-23T08:11:12.123Z,738.75
2023-05-23T08:13:40.633Z,746.80
2023-05-23T08:16:09.155Z,721.15
2023-05-23T08:18:39.195Z,702.17
2023-05-23T08:21:08.277Z,753.40
2023-05-23T08:23:36.668Z,706.78
2023-05-23T08:26:05.172Z,740.60
2023-05-23T08:28:34.789Z,702.10
2023-05-23T08:31:03.471Z,734.72
2023-05-23T08:33:31.933Z,727.20
2023-05-23T08:36:01.926Z,731.90
2023-05-23T08:38:30.404Z,772.70
2023-05-23T08:41:02.148Z,735.90
2023-05-23T08:43:30.715Z,724.78
2023-05-23T08:45:59.388Z,762.40
2023-05-23T08:48:28.852Z,720.95
2023-05-23T08:50:57.291Z,768.45
2023-05-23T08:53:29.149Z,708.22
2023-05-23T08:56:02.297Z,740.80
2023-05-23T08:58:32.010Z,707.60
2023-05-23T09:01:01.192Z,716.40
2023-05-23T09:03:29.774Z,784.55
2023-05-23T09:05:58.851Z,703.83
2023-05-23T09:08:29.172Z,718.67
2023-05-23T09:10:57.892Z,762.80
2023-05-23T09:13:28.501Z,738.17
2023-05-23T09:16:04.365Z,731.35
2023-05-23T09:18:37.035Z,727.47
2023-05-23T09:21:06.176Z,731.80
2023-05-23T09:23:37.152Z,754.00
2023-05-23T09:26:06.118Z,754.72
2023-05-23T09:28:35.132Z,732.55
2023-05-23T09:31:04.706Z,787.42
2023-05-23T09:33:45.077Z,777.22
2023-05-23T09:36:13.596Z,804.60
2023-05-23T09:38:44.800Z,768.95
2023-05-23T09:41:13.779Z,784.70
2023-05-23T09:43:50.775Z,746.88
2023-05-23T09:46:19.982Z,727.38
2023-05-23T09:48:48.733Z,720.08
2023-05-23T09:51:17.184Z,775.60
2023-05-23T09:53:47.072Z,746.60
2023-05-23T09:56:16.710Z,770.25
2023-05-23T09:58:48.114Z,726.53
2023-05-23T10:01:17.640Z,774.08
2023-05-23T10:03:49.816Z,745.58
2023-05-23T10:06:23.707Z,742.35
2023-05-23T10:08:56.949Z,748.60
2023-05-23T10:12:16.984Z,756.27
2023-05-23T10:14:46.938Z,775.40
2023-05-23T10:17:21.551Z,799.33
2023-05-23T10:19:55.078Z,780.75
2023-05-23T10:22:23.569Z,787.35
2023-05-23T10:24:53.384Z,870.05
2023-05-23T10:27:21.939Z,757.20
2023-05-23T10:29:50.378Z,768.83
2023-05-23T10:32:19.182Z,770.17
2023-05-23T10:34:54.464Z,771.17
2023-05-23T10:37:25.994Z,806.08
2023-05-23T10:40:02.979Z,775.78
2023-05-23T10:42:41.587Z,785.28
2023-05-23T10:45:17.449Z,779.72
2023-05-23T10:47:47.984Z,794.53
2023-05-23T10:50:18.305Z,802.58
2023-05-23T10:52:46.931Z,769.05
2023-05-23T10:55:17.876Z,771.78
2023-05-23T10:57:46.754Z,783.17
2023-05-23T11:00:17.015Z,785.00
2023-05-23T11:03:02.950Z,788.83
2023-05-23T11:05:32.018Z,792.33
2023-05-23T11:08:11.040Z,773.13
2023-05-23T11:11:02.048Z,788.17
2023-05-23T11:14:00.246Z,774.72
2023-05-23T11:16:30.401Z,800.58
2023-05-23T11:19:32.144Z,829.55
2023-05-23T11:22:03.010Z,794.78
2023-05-23T11:24:52.022Z,783.15
2023-05-23T11:27:28.167Z,749.55
2023-05-23T11:30:05.077Z,766.47
2023-05-23T11:32:33.916Z,794.70
2023-05-23T11:35:03.754Z,781.67
2023-05-23T11:37:32.994Z,774.80
2023-05-23T11:40:03.987Z,778.65
2023-05-23T11:42:34.488Z,827.00
2023-05-23T11:45:03.613Z,737.72
2023-05-23T11:47:32.551Z,776.53
2023-05-23T11:50:03.529Z,774.50
2023-05-23T11:52:35.182Z,775.65
2023-05-23T11:55:04.496Z,776.38
2023-05-23T11:57:34.908Z,774.80
2023-05-23T12:00:04.230Z,835.92
2023-05-23T12:02:32.854Z,821.03
2023-05-23T12:07:52.285Z,821.72
2023-05-23T12:10:21.834Z,775.30
2023-05-23T12:12:53.743Z,776.08
2023-05-23T12:15:27.997Z,777.17
2023-05-23T12:17:57.522Z,815.15
2023-05-23T12:20:28.820Z,776.78
2023-05-23T12:22:58.943Z,837.40
2023-05-23T12:25:27.716Z,776.08
2023-05-23T12:27:58.769Z,763.88
2023-05-23T12:30:27.428Z,764.83
2023-05-23T12:32:55.930Z,764.85
2023-05-23T12:35:28.283Z,772.72
2023-05-23T12:37:58.814Z,783.40
2023-05-23T12:40:27.476Z,773.33
2023-05-23T12:42:58.112Z,784.70
2023-05-23T12:45:32.803Z,825.78
2023-05-23T12:48:01.987Z,771.03
2023-05-23T12:50:30.941Z,786.45
2023-05-23T12:52:59.848Z,819.53
2023-05-23T12:55:28.360Z,780.67
2023-05-23T12:57:58.154Z,771.45
2023-05-23T13:00:26.604Z,791.55
2023-05-23T13:02:55.110Z,793.40
2023-05-23T13:05:29.335Z,782.15
2023-05-23T13:10:30.192Z,772.08
2023-05-23T13:13:02.721Z,793.47
2023-05-23T13:15:31.636Z,813.55
2023-05-23T13:18:00.403Z,781.40
2023-05-23T13:20:32.068Z,775.47
2023-05-23T13:23:00.780Z,807.50
2023-05-23T13:25:29.578Z,781.47
2023-05-23T13:27:58.047Z,827.15
2023-05-23T13:30:27.860Z,800.17
2023-05-23T13:32:56.428Z,832.08
2023-05-23T13:35:25.068Z,778.72
2023-05-23T13:37:53.697Z,774.63
2023-05-23T13:40:24.617Z,782.75
2023-05-23T13:42:53.465Z,783.05
2023-05-23T13:45:23.215Z,786.95
2023-05-23T13:47:53.117Z,781.88
2023-05-23T13:50:21.869Z,791.60
2023-05-23T13:52:50.351Z,768.08
2023-05-23T13:55:19.564Z,792.47
2023-05-23T13:57:48.037Z,785.22
2023-05-23T14:00:17.376Z,803.00
2023-05-23T14:02:45.838Z,778.60
2023-05-23T14:05:15.728Z,817.67
2023-05-23T14:07:47.592Z,788.25
2023-05-23T14:10:17.443Z,783.08
2023-05-23T14:12:46.186Z,808.35
2023-05-23T14:15:14.892Z,786.17
2023-05-23T14:17:43.512Z,805.05
2023-05-23T14:20:14.204Z,825.35
2023-05-23T14:22:42.739Z,815.25
2023-05-23T14:25:11.871Z,829.95
2023-05-23T14:27:41.253Z,851.28
2023-05-23T14:30:10.855Z,808.45
2023-05-23T14:32:39.973Z,849.45
2023-05-23T14:35:10.316Z,780.22
2023-05-23T14:37:40.430Z,802.05
2023-05-23T14:40:11.062Z,785.13
2023-05-23T14:42:39.540Z,792.20
2023-05-23T14:45:08.734Z,807.42
2023-05-23T14:47:37.621Z,877.97
2023-05-23T14:50:06.804Z,792.70
2023-05-23T14:52:35.398Z,776.78
2023-05-23T14:55:05.597Z,768.13
2023-05-23T14:57:34.270Z,844.08
2023-05-23T15:00:04.958Z,829.47
2023-05-23T15:02:33.718Z,834.22
2023-05-23T15:05:02.318Z,763.08
2023-05-23T15:07:33.404Z,767.85
2023-05-23T15:10:02.455Z,758.22
2023-05-23T15:12:32.370Z,799.53
2023-05-23T15:15:04.148Z,796.05
2023-05-23T15:17:33.401Z,820.97
2023-05-23T15:20:04.419Z,836.95
2023-05-23T15:22:39.506Z,791.03
2023-05-23T15:25:10.305Z,794.28
2023-05-23T15:27:40.251Z,804.97
2023-05-23T15:30:10.003Z,794.28
2023-05-23T15:32:38.646Z,831.30
2023-05-23T15:35:07.892Z,779.67
2023-05-23T15:37:36.330Z,805.47
2023-05-23T15:40:05.607Z,791.08
2023-05-23T15:42:34.137Z,894.63
2023-05-23T15:45:04.081Z,860.72
2023-05-23T15:47:32.615Z,863.33
2023-05-23T15:50:01.346Z,753.60
2023-05-23T15:52:29.940Z,771.50
2023-05-23T15:54:58.490Z,746.08
2023-05-23T15:57:26.982Z,828.65
2023-05-23T15:59:55.604Z,769.97
2023-05-23T16:02:25.566Z,730.15
2023-05-23T16:04:54.183Z,764.90
2023-05-23T16:07:22.700Z,786.28
2023-05-23T16:09:51.117Z,731.78
2023-05-23T16:12:19.659Z,788.97
2023-05-23T16:14:48.177Z,724.33
2023-05-23T16:17:16.725Z,729.70
2023-05-23T16:19:46.661Z,720.00
2023-05-23T16:22:15.092Z,757.17
2023-05-23T16:24:44.287Z,780.75
2023-05-23T16:27:12.657Z,790.03
2023-05-23T16:29:41.226Z,722.85
2023-05-23T16:32:09.999Z,745.58
2023-05-23T16:34:38.590Z,765.42
2023-05-23T16:37:08.413Z,790.72
2023-05-23T16:39:38.033Z,784.92
2023-05-23T16:42:08.242Z,779.67
2023-05-23T16:44:36.777Z,773.42
2023-05-23T16:47:05.438Z,767.17
2023-05-23T16:49:33.847Z,743.95
2023-05-23T16:52:02.592Z,767.22
2023-05-23T16:54:32.493Z,779.55
2023-05-23T16:57:02.329Z,767.33
2023-05-23T16:59:31.846Z,736.15
2023-05-23T17:02:00.447Z,729.42
2023-05-23T17:04:28.873Z,769.97
2023-05-23T17:06:58.167Z,806.95
2023-05-23T17:09:26.618Z,765.13
2023-05-23T17:11:56.575Z,756.63
2023-05-23T17:14:24.971Z,741.05
2023-05-23T17:16:53.438Z,754.15
2023-05-23T17:19:22.065Z,761.58
2023-05-23T17:21:50.812Z,823.78
2023-05-23T17:24:20.667Z,761.15
2023-05-23T17:26:49.219Z,767.97
2023-05-23T17:29:20.330Z,766.45
2023-05-23T17:31:48.757Z,750.67
2023-05-23T17:34:18.417Z,769.17
2023-05-23T17:36:46.800Z,757.10
2023-05-23T17:39:15.379Z,750.78
2023-05-23T17:41:44.722Z,781.83
2023-05-23T17:44:13.133Z,787.88
2023-05-23T17:46:42.958Z,725.40
2023-05-23T17:49:11.390Z,733.78
2023-05-23T17:51:39.876Z,724.42
2023-05-23T17:54:08.299Z,709.30
2023-05-23T17:56:36.722Z,726.53
2023-05-23T17:59:06.078Z,706.53
2023-05-23T18:01:35.435Z,804.00
2023-05-23T18:04:05.671Z,718.67
2023-05-23T18:06:34.149Z,712.83
2023-05-23T18:09:03.262Z,729.70
2023-05-23T18:11:31.954Z,670.60
2023-05-23T18:14:00.369Z,738.85
2023-05-23T18:16:28.864Z,668.10
2023-05-23T18:18:58.823Z,671.97
2023-05-23T18:21:29.748Z,684.13
2023-05-23T18:23:58.145Z,674.30
2023-05-23T18:26:27.237Z,681.30
2023-05-23T18:28:55.684Z,697.60
2023-05-23T18:31:24.082Z,669.92
2023-05-23T18:33:52.691Z,687.75
2023-05-23T18:36:21.126Z,733.20
2023-05-23T18:38:50.952Z,656.65
2023-05-23T18:41:19.464Z,707.50
2023-05-23T18:43:47.917Z,657.75
2023-05-23T18:46:16.404Z,704.90
2023-05-23T18:48:44.926Z,670.50
2023-05-23T18:51:13.502Z,699.45
2023-05-23T18:53:43.174Z,671.72
2023-05-23T18:56:13.054Z,696.88
2023-05-23T18:58:41.506Z,663.70
2023-05-23T19:01:10.029Z,704.65
2023-05-23T19:03:38.497Z,679.42
2023-05-23T19:06:08.303Z,688.97
2023-05-23T19:08:37.054Z,689.53
2023-05-23T19:11:05.970Z,711.92
2023-05-23T19:13:35.713Z,671.83
2023-05-23T19:16:04.424Z,691.60
2023-05-23T19:18:32.874Z,679.35
2023-05-23T19:21:01.993Z,724.35
2023-05-23T19:23:30.487Z,703.03
2023-05-23T19:25:58.991Z,683.78
2023-05-23T19:28:27.459Z,687.05
2023-05-23T19:30:57.298Z,693.08
2023-05-23T19:33:25.968Z,691.67
2023-05-23T19:35:55.021Z,690.53
2023-05-23T19:38:23.560Z,706.28
2023-05-23T19:40:51.927Z,697.75
2023-05-23T19:43:20.506Z,696.70
2023-05-23T19:45:49.074Z,690.15
2023-05-23T19:48:19.147Z,692.00
2023-05-23T19:50:47.684Z,719.33
2023-05-23T19:53:16.285Z,764.75
2023-05-23T19:55:44.767Z,739.92
2023-05-23T19:58:13.398Z,683.67
2023-05-23T20:00:42.825Z,780.90
2023-05-23T20:03:11.669Z,703.08
2023-05-23T20:05:41.703Z,707.65
2023-05-23T20:08:10.552Z,698.13
2023-05-23T20:10:39.179Z,720.90
2023-05-23T20:13:07.930Z,729.85
2023-05-23T20:15:39.987Z,680.40
2023-05-23T20:18:09.200Z,689.63
2023-05-23T20:20:37.760Z,683.00
2023-05-23T20:23:08.099Z,700.15
2023-05-23T20:25:36.560Z,684.85
2023-05-23T20:28:05.044Z,712.63
2023-05-23T20:30:33.691Z,684.10
2023-05-23T20:33:02.208Z,710.83
2023-05-23T20:35:31.086Z,711.80
2023-05-23T20:37:59.482Z,714.20
2023-05-23T20:40:29.759Z,695.75
2023-05-23T20:43:04.571Z,685.75
2023-05-23T20:45:33.690Z,692.58
2023-05-23T20:48:02.208Z,678.92
2023-05-23T20:50:31.306Z,707.05
2023-05-23T20:53:02.268Z,705.60
2023-05-23T20:55:35.505Z,675.22
2023-05-23T20:58:03.920Z,689.83
2023-05-23T21:00:32.422Z,681.03
2023-05-23T21:03:02.064Z,678.78
2023-05-23T21:05:30.763Z,662.20
2023-05-23T21:07:59.171Z,663.42
2023-05-23T21:10:27.537Z,695.17
2023-05-23T21:12:57.318Z,673.47
2023-05-23T21:15:26.073Z,735.33
2023-05-23T21:17:54.739Z,667.67
2023-05-23T21:20:23.418Z,702.08
2023-05-23T21:22:52.098Z,701.35
2023-05-23T21:25:20.565Z,703.55
2023-05-23T21:27:48.928Z,669.10
2023-05-23T21:30:18.877Z,701.40
2023-05-23T21:32:47.515Z,655.03
2023-05-23T21:35:15.929Z,699.90
2023-05-23T21:37:44.328Z,668.42
2023-05-23T21:40:13.373Z,658.28
2023-05-23T21:42:41.786Z,718.45
2023-05-23T21:45:11.290Z,683.28
2023-05-23T21:47:41.103Z,703.97
2023-05-23T21:50:10.565Z,691.10
2023-05-23T21:52:38.961Z,715.97
2023-05-23T21:55:07.595Z,687.70
2023-05-23T21:57:36.024Z,699.30
2023-05-23T22:00:04.751Z,664.03
2023-05-23T22:02:33.306Z,662.13
2023-05-23T22:05:03.703Z,695.55
2023-05-23T22:07:32.131Z,653.25
2023-05-23T22:10:00.612Z,641.88
2023-05-23T22:12:29.020Z,697.40
2023-05-23T22:14:57.376Z,705.97
2023-05-23T22:17:26.419Z,697.00
2023-05-23T22:19:57.026Z,684.35
2023-05-23T22:22:26.899Z,687.95
2023-05-23T22:24:55.336Z,692.65
2023-05-23T22:27:23.758Z,691.00
2023-05-23T22:29:52.203Z,702.53
2023-05-23T22:32:20.706Z,704.45
2023-05-23T22:34:49.123Z,684.63
2023-05-23T22:37:17.601Z,712.00
2023-05-23T22:39:47.424Z,701.45
2023-05-23T22:42:15.892Z,691.35
2023-05-23T22:44:44.340Z,701.38
2023-05-23T22:47:13.855Z,677.97
2023-05-23T22:49:43.559Z,694.50
2023-05-23T22:52:12.196Z,696.92
2023-05-23T22:54:40.608Z,678.58
2023-05-23T22:57:10.628Z,678.15
2023-05-23T22:59:39.613Z,687.72
2023-05-23T23:02:08.120Z,695.53
2023-05-23T23:04:38.152Z,710.15
2023-05-23T23:07:08.702Z,730.30
2023-05-23T23:09:37.230Z,672.03
2023-05-23T23:12:06.156Z,694.97
2023-05-23T23:14:35.936Z,708.72
2023-05-23T23:17:04.962Z,646.10
2023-05-23T23:19:35.250Z,697.67
2023-05-23T23:22:04.252Z,688.00
2023-05-23T23:24:32.851Z,641.00
2023-05-23T23:27:01.296Z,651.58
2023-05-23T23:29:29.673Z,675.20
2023-05-23T23:31:59.799Z,664.58
2023-05-23T23:34:28.154Z,663.20
2023-05-23T23:36:56.544Z,659.15
2023-05-23T23:39:24.981Z,675.20
2023-05-23T23:41:53.395Z,673.55
2023-05-23T23:44:21.810Z,657.47
2023-05-23T23:46:50.280Z,683.45
2023-05-23T23:49:20.651Z,691.67
2023-05-23T23:51:49.007Z,656.10
2023-05-23T23:54:17.508Z,653.22
2023-05-23T23:56:46.297Z,644.58
2023-05-23T23:59:14.679Z,720.25
